Alaska — SYDS — position and weather

sailwx.info

Track history (hours):
 
Tides and Currents Weather Stations Pressure Air Temp Water Temp Dewpoint Dewpoint Depression Visibility Wind Speed Wind Dir Waves Ship Positions

Alaska

Last reported at 2017-Mar-28 19:32 UTC. Time now 2017-Mar-28 19:44 UTC.
Position N 30°09' W 093°20'.

Length 274 m; draft 10.5 m.

Type: Tanker. MMSI: 240472000.

Date/timePositionNaut miles runAvg speedWind from/ knotsBaromVisibWave heightAir tempDewpointWater temp
2017-Mar-28 19:32N 30°09' W 093°20'0 0.0
2017-Mar-28 18:32N 30°10' W 093°20'0 0.0
2017-Mar-28 17:29N 30°09' W 093°20'0 0.0
2017-Mar-28 16:32N 30°09' W 093°20'0 0.0
2017-Mar-28 15:32N 30°09' W 093°20'0 0.0
2017-Mar-28 14:32N 30°09' W 093°20'0 0.0
2017-Mar-28 13:32N 30°10' W 093°20'0 0.0
2017-Mar-28 12:32N 30°09' W 093°20'0 0.0
2017-Mar-28 11:32N 30°09' W 093°20'2 2.0
2017-Mar-28 10:33N 30°08' W 093°20'6 5.7
2017-Mar-28 09:33N 30°02' W 093°20'6 5.6
2017-Mar-28 08:33N 29°56' W 093°20'8 7.9
2017-Mar-28 07:33N 29°48' W 093°21'1010.3
2017-Mar-28 06:34N 29°38' W 093°19'23 1.5
2017-Mar-27 15:09N 29°17' W 093°12'0 0.0
2017-Mar-27 14:33N 29°17' W 093°12'0 0.0
2017-Mar-27 05:12N 29°17' W 093°12'  
2017-Mar-23 22:33N 29°17' W 093°12'1 0.7
2017-Mar-23 21:29N 29°16' W 093°12'4 4.5
2017-Mar-23 20:33N 29°12' W 093°13'1212.4
2017-Mar-23 19:33N 28°60' W 093°13'1212.5
2017-Mar-23 18:33N 28°47' W 093°12'1212.3
2017-Mar-23 17:33N 28°35' W 093°11'1212.5
2017-Mar-23 16:33N 28°25' W 093°02'2612.7
2017-Mar-23 14:28N 28°04' W 092°44'1112.6
2017-Mar-23 13:33N 27°55' W 092°36'9 8.8
2017-Mar-23 12:33N 27°49' W 092°28'3 2.9
2017-Mar-23 11:33N 27°46' W 092°28'1110.9
2017-Mar-23 10:31N 27°37' W 092°20'1212.3
2017-Mar-23 09:33N 27°28' W 092°11'1312.3
2017-Mar-23 08:31N 27°19' W 092°02'3912.0
2017-Mar-23 05:15N 26°50' W 091°32'2112.2
2017-Mar-23 03:32N 26°35' W 091°15'  
Track history (hours):
 
Tides and Currents Weather Stations Pressure Air Temp Water Temp Dewpoint Dewpoint Depression Visibility Wind Speed Wind Dir Waves Ship Positions

Alaska

Last reported at 2017-Mar-28 19:32 UTC. Time now 2017-Mar-28 19:44 UTC.
Position N 30°09' W 093°20'.

Length 274 m; draft 10.5 m.

Type: Tanker. MMSI: 240472000.

Date/timePositionNaut miles runAvg speedWind from/ knotsBaromVisibWave heightAir tempDewpointWater temp
2017-Mar-28 19:32N 30°09' W 093°20'0 0.0
2017-Mar-28 18:32N 30°10' W 093°20'0 0.0
2017-Mar-28 17:29N 30°09' W 093°20'0 0.0
2017-Mar-28 16:32N 30°09' W 093°20'0 0.0
2017-Mar-28 15:32N 30°09' W 093°20'0 0.0
2017-Mar-28 14:32N 30°09' W 093°20'0 0.0
2017-Mar-28 13:32N 30°10' W 093°20'0 0.0
2017-Mar-28 12:32N 30°09' W 093°20'0 0.0
2017-Mar-28 11:32N 30°09' W 093°20'2 2.0
2017-Mar-28 10:33N 30°08' W 093°20'6 5.7
2017-Mar-28 09:33N 30°02' W 093°20'6 5.6
2017-Mar-28 08:33N 29°56' W 093°20'8 7.9
2017-Mar-28 07:33N 29°48' W 093°21'1010.3
2017-Mar-28 06:34N 29°38' W 093°19'23 1.5
2017-Mar-27 15:09N 29°17' W 093°12'0 0.0
2017-Mar-27 14:33N 29°17' W 093°12'0 0.0
2017-Mar-27 05:12N 29°17' W 093°12'  
2017-Mar-23 22:33N 29°17' W 093°12'1 0.7
2017-Mar-23 21:29N 29°16' W 093°12'4 4.5
2017-Mar-23 20:33N 29°12' W 093°13'1212.4
2017-Mar-23 19:33N 28°60' W 093°13'1212.5
2017-Mar-23 18:33N 28°47' W 093°12'1212.3
2017-Mar-23 17:33N 28°35' W 093°11'1212.5
2017-Mar-23 16:33N 28°25' W 093°02'2612.7
2017-Mar-23 14:28N 28°04' W 092°44'1112.6
2017-Mar-23 13:33N 27°55' W 092°36'9 8.8
2017-Mar-23 12:33N 27°49' W 092°28'3 2.9
2017-Mar-23 11:33N 27°46' W 092°28'1110.9
2017-Mar-23 10:31N 27°37' W 092°20'1212.3
2017-Mar-23 09:33N 27°28' W 092°11'1312.3
2017-Mar-23 08:31N 27°19' W 092°02'3912.0
2017-Mar-23 05:15N 26°50' W 091°32'2112.2
2017-Mar-23 03:32N 26°35' W 091°15'  

Dump ship's entire track history